sensor_id;sensor_type;location;lat;lon;timestamp;temperature;humidity
52187;DHT22;38161;53.020;6.598;2022-08-20T00:01:40;19.70;99.90
52187;DHT22;38161;53.020;6.598;2022-08-20T00:04:06;19.70;99.90
52187;DHT22;38161;53.020;6.598;2022-08-20T00:06:32;19.60;99.90
52187;DHT22;38161;53.020;6.598;2022-08-20T00:08:58;19.60;99.90
52187;DHT22;38161;53.020;6.598;2022-08-20T00:11:28;19.60;99.90
52187;DHT22;38161;53.020;6.598;2022-08-20T00:13:57;19.50;99.90
52187;DHT22;38161;53.020;6.598;2022-08-20T00:16:25;19.50;99.90
52187;DHT22;38161;53.020;6.598;2022-08-20T00:18:52;19.50;99.90
52187;DHT22;38161;53.020;6.598;2022-08-20T00:21:19;19.50;99.90
52187;DHT22;38161;53.020;6.598;2022-08-20T00:23:47;19.50;99.90
52187;DHT22;38161;53.020;6.598;2022-08-20T00:26:13;19.50;99.90
52187;DHT22;38161;53.020;6.598;2022-08-20T00:28:39;19.50;99.90
52187;DHT22;38161;53.020;6.598;2022-08-20T00:31:08;19.40;99.90
52187;DHT22;38161;53.020;6.598;2022-08-20T00:33:35;19.40;99.90
52187;DHT22;38161;53.020;6.598;2022-08-20T00:36:02;19.40;99.90
52187;DHT22;38161;53.020;6.598;2022-08-20T00:38:36;19.40;99.90
52187;DHT22;38161;53.020;6.598;2022-08-20T00:41:03;19.40;99.90
52187;DHT22;38161;53.020;6.598;2022-08-20T00:43:36;19.30;99.90
52187;DHT22;38161;53.020;6.598;2022-08-20T00:46:10;19.30;99.90
52187;DHT22;38161;53.020;6.598;2022-08-20T00:48:40;19.30;99.90
52187;DHT22;38161;53.020;6.598;2022-08-20T00:51:13;19.30;99.90
52187;DHT22;38161;53.020;6.598;2022-08-20T00:53:40;19.30;99.90
52187;DHT22;38161;53.020;6.598;2022-08-20T00:56:07;19.30;99.90
52187;DHT22;38161;53.020;6.598;2022-08-20T00:58:35;19.30;99.90
52187;DHT22;38161;53.020;6.598;2022-08-20T01:01:02;19.20;99.90
52187;DHT22;38161;53.020;6.598;2022-08-20T01:03:29;19.20;99.90
52187;DHT22;38161;53.020;6.598;2022-08-20T01:05:55;19.20;99.90
52187;DHT22;38161;53.020;6.598;2022-08-20T01:08:23;19.10;99.90
52187;DHT22;38161;53.020;6.598;2022-08-20T01:10:51;19.10;99.90
52187;DHT22;38161;53.020;6.598;2022-08-20T01:13:24;19.10;99.90
52187;DHT22;38161;53.020;6.598;2022-08-20T01:15:53;19.10;99.90
52187;DHT22;38161;53.020;6.598;2022-08-20T01:18:24;19.10;99.90
52187;DHT22;38161;53.020;6.598;2022-08-20T01:21:02;19.00;99.90
52187;DHT22;38161;53.020;6.598;2022-08-20T01:28:55;19.00;99.90
52187;DHT22;38161;53.020;6.598;2022-08-20T01:31:27;18.90;99.90
52187;DHT22;38161;53.020;6.598;2022-08-20T01:33:57;18.90;99.90
52187;DHT22;38161;53.020;6.598;2022-08-20T01:36:35;18.80;99.90
52187;DHT22;38161;53.020;6.598;2022-08-20T01:39:05;18.80;99.90
52187;DHT22;38161;53.020;6.598;2022-08-20T01:41:42;18.80;99.90
52187;DHT22;38161;53.020;6.598;2022-08-20T01:44:11;18.80;99.90
52187;DHT22;38161;53.020;6.598;2022-08-20T01:46:39;18.70;99.90
52187;DHT22;38161;53.020;6.598;2022-08-20T01:51:40;18.70;99.90
52187;DHT22;38161;53.020;6.598;2022-08-20T01:54:06;18.70;99.90
52187;DHT22;38161;53.020;6.598;2022-08-20T01:56:33;18.70;99.90
52187;DHT22;38161;53.020;6.598;2022-08-20T01:59:02;18.60;99.90
52187;DHT22;38161;53.020;6.598;2022-08-20T02:01:36;18.60;99.90
52187;DHT22;38161;53.020;6.598;2022-08-20T02:04:04;18.60;99.90
52187;DHT22;38161;53.020;6.598;2022-08-20T02:06:33;18.60;99.90
52187;DHT22;38161;53.020;6.598;2022-08-20T02:09:00;18.60;99.90
52187;DHT22;38161;53.020;6.598;2022-08-20T02:11:28;18.60;99.90
52187;DHT22;38161;53.020;6.598;2022-08-20T02:13:55;18.50;99.90
52187;DHT22;38161;53.020;6.598;2022-08-20T02:16:26;18.50;99.90
52187;DHT22;38161;53.020;6.598;2022-08-20T02:18:58;18.50;99.90
52187;DHT22;38161;53.020;6.598;2022-08-20T02:21:26;18.50;99.90
52187;DHT22;38161;53.020;6.598;2022-08-20T02:23:54;18.50;99.90
52187;DHT22;38161;53.020;6.598;2022-08-20T02:26:20;18.50;99.90
52187;DHT22;38161;53.020;6.598;2022-08-20T02:28:49;18.50;99.90
52187;DHT22;38161;53.020;6.598;2022-08-20T02:31:20;18.40;99.90
52187;DHT22;38161;53.020;6.598;2022-08-20T02:33:47;18.40;99.90
52187;DHT22;38161;53.020;6.598;2022-08-20T02:36:13;18.40;99.90
52187;DHT22;38161;53.020;6.598;2022-08-20T02:38:41;18.40;99.90
52187;DHT22;38161;53.020;6.598;2022-08-20T02:41:07;18.30;99.90
52187;DHT22;38161;53.020;6.598;2022-08-20T02:43:33;18.40;99.90
52187;DHT22;38161;53.020;6.598;2022-08-20T02:46:00;18.30;99.90
52187;DHT22;38161;53.020;6.598;2022-08-20T02:48:27;18.30;99.90
52187;DHT22;38161;53.020;6.598;2022-08-20T02:50:55;18.30;99.90
52187;DHT22;38161;53.020;6.598;2022-08-20T02:53:23;18.30;99.90
52187;DHT22;38161;53.020;6.598;2022-08-20T02:55:49;18.20;99.90
52187;DHT22;38161;53.020;6.598;2022-08-20T02:58:16;18.20;99.90
52187;DHT22;38161;53.020;6.598;2022-08-20T03:00:42;18.20;99.90
52187;DHT22;38161;53.020;6.598;2022-08-20T03:03:10;18.20;99.90
52187;DHT22;38161;53.020;6.598;2022-08-20T03:05:37;18.20;99.90
52187;DHT22;38161;53.020;6.598;2022-08-20T03:08:05;18.20;99.90
52187;DHT22;38161;53.020;6.598;2022-08-20T03:10:33;18.10;99.90
52187;DHT22;38161;53.020;6.598;2022-08-20T03:13:00;18.10;99.90
52187;DHT22;38161;53.020;6.598;2022-08-20T03:15:28;18.10;99.90
52187;DHT22;38161;53.020;6.598;2022-08-20T03:17:54;18.10;99.90
52187;DHT22;38161;53.020;6.598;2022-08-20T03:20:21;18.00;99.90
52187;DHT22;38161;53.020;6.598;2022-08-20T03:22:47;18.00;99.90
52187;DHT22;38161;53.020;6.598;2022-08-20T03:25:15;18.00;99.90
52187;DHT22;38161;53.020;6.598;2022-08-20T03:27:41;18.00;99.90
52187;DHT22;38161;53.020;6.598;2022-08-20T03:30:08;18.00;99.90
52187;DHT22;38161;53.020;6.598;2022-08-20T03:32:35;17.90;99.90
52187;DHT22;38161;53.020;6.598;2022-08-20T03:35:04;17.90;99.90
52187;DHT22;38161;53.020;6.598;2022-08-20T03:37:31;17.90;99.90
52187;DHT22;38161;53.020;6.598;2022-08-20T03:39:59;17.90;99.90
52187;DHT22;38161;53.020;6.598;2022-08-20T03:42:26;17.90;99.90
52187;DHT22;38161;53.020;6.598;2022-08-20T03:44:52;17.90;99.90
52187;DHT22;38161;53.020;6.598;2022-08-20T03:47:18;17.90;99.90
52187;DHT22;38161;53.020;6.598;2022-08-20T03:49:44;17.80;99.90
52187;DHT22;38161;53.020;6.598;2022-08-20T03:52:09;17.80;99.90
52187;DHT22;38161;53.020;6.598;2022-08-20T03:54:35;17.70;99.90
52187;DHT22;38161;53.020;6.598;2022-08-20T03:57:01;17.80;99.90
52187;DHT22;38161;53.020;6.598;2022-08-20T03:59:29;17.80;99.90
52187;DHT22;38161;53.020;6.598;2022-08-20T04:01:58;17.80;99.90
52187;DHT22;38161;53.020;6.598;2022-08-20T04:04:24;17.70;99.90
52187;DHT22;38161;53.020;6.598;2022-08-20T04:06:50;17.70;99.90
52187;DHT22;38161;53.020;6.598;2022-08-20T04:09:16;17.70;99.90
52187;DHT22;38161;53.020;6.598;2022-08-20T04:11:42;17.70;99.90
52187;DHT22;38161;53.020;6.598;2022-08-20T04:14:10;17.70;99.90
52187;DHT22;38161;53.020;6.598;2022-08-20T04:16:36;17.70;99.90
52187;DHT22;38161;53.020;6.598;2022-08-20T04:19:02;17.70;99.90
52187;DHT22;38161;53.020;6.598;2022-08-20T04:21:34;17.70;99.90
52187;DHT22;38161;53.020;6.598;2022-08-20T04:24:02;17.60;99.90
52187;DHT22;38161;53.020;6.598;2022-08-20T04:26:28;17.60;99.90
52187;DHT22;38161;53.020;6.598;2022-08-20T04:28:54;17.60;99.90
52187;DHT22;38161;53.020;6.598;2022-08-20T04:31:20;17.60;99.90
52187;DHT22;38161;53.020;6.598;2022-08-20T04:33:49;17.60;99.90
52187;DHT22;38161;53.020;6.598;2022-08-20T04:36:15;17.60;99.90
52187;DHT22;38161;53.020;6.598;2022-08-20T04:38:40;17.50;99.90
52187;DHT22;38161;53.020;6.598;2022-08-20T04:41:06;17.50;99.90
52187;DHT22;38161;53.020;6.598;2022-08-20T04:43:34;17.50;99.90
52187;DHT22;38161;53.020;6.598;2022-08-20T04:46:03;17.40;99.90
52187;DHT22;38161;53.020;6.598;2022-08-20T04:48:30;17.40;99.90
52187;DHT22;38161;53.020;6.598;2022-08-20T04:50:57;17.40;99.90
52187;DHT22;38161;53.020;6.598;2022-08-20T04:53:25;17.40;99.90
52187;DHT22;38161;53.020;6.598;2022-08-20T04:55:55;17.40;99.90
52187;DHT22;38161;53.020;6.598;2022-08-20T04:58:26;17.40;99.90
52187;DHT22;38161;53.020;6.598;2022-08-20T05:00:56;17.40;99.90
52187;DHT22;38161;53.020;6.598;2022-08-20T05:03:22;17.40;99.90
52187;DHT22;38161;53.020;6.598;2022-08-20T05:05:48;17.30;99.90
52187;DHT22;38161;53.020;6.598;2022-08-20T05:08:16;17.30;99.90
52187;DHT22;38161;53.020;6.598;2022-08-20T05:10:43;17.30;99.90
52187;DHT22;38161;53.020;6.598;2022-08-20T05:13:09;17.30;99.90
52187;DHT22;38161;53.020;6.598;2022-08-20T05:15:36;17.30;99.90
52187;DHT22;38161;53.020;6.598;2022-08-20T05:18:04;17.20;99.90
52187;DHT22;38161;53.020;6.598;2022-08-20T05:20:34;17.20;99.90
52187;DHT22;38161;53.020;6.598;2022-08-20T05:23:05;17.20;99.90
52187;DHT22;38161;53.020;6.598;2022-08-20T05:25:31;17.10;99.90
52187;DHT22;38161;53.020;6.598;2022-08-20T05:27:59;17.10;99.90
52187;DHT22;38161;53.020;6.598;2022-08-20T05:30:27;17.10;99.90
52187;DHT22;38161;53.020;6.598;2022-08-20T05:32:58;17.10;99.90
52187;DHT22;38161;53.020;6.598;2022-08-20T05:35:24;17.10;99.90
52187;DHT22;38161;53.020;6.598;2022-08-20T05:37:50;17.10;99.90
52187;DHT22;38161;53.020;6.598;2022-08-20T05:40:16;17.00;99.90
52187;DHT22;38161;53.020;6.598;2022-08-20T05:42:42;17.00;99.90
52187;DHT22;38161;53.020;6.598;2022-08-20T05:45:08;17.00;99.90
52187;DHT22;38161;53.020;6.598;2022-08-20T05:47:38;17.00;99.90
52187;DHT22;38161;53.020;6.598;2022-08-20T05:50:05;17.00;99.90
52187;DHT22;38161;53.020;6.598;2022-08-20T05:52:31;16.90;99.90
52187;DHT22;38161;53.020;6.598;2022-08-20T05:54:56;16.90;99.90
52187;DHT22;38161;53.020;6.598;2022-08-20T05:57:22;17.00;99.90
52187;DHT22;38161;53.020;6.598;2022-08-20T05:59:48;17.00;99.90
52187;DHT22;38161;53.020;6.598;2022-08-20T06:02:14;17.00;99.90
52187;DHT22;38161;53.020;6.598;2022-08-20T06:04:58;17.00;99.90
52187;DHT22;38161;53.020;6.598;2022-08-20T06:07:24;17.00;99.90
52187;DHT22;38161;53.020;6.598;2022-08-20T06:09:50;17.00;99.90
52187;DHT22;38161;53.020;6.598;2022-08-20T06:12:16;17.00;99.90
52187;DHT22;38161;53.020;6.598;2022-08-20T06:14:43;17.00;99.90
52187;DHT22;38161;53.020;6.598;2022-08-20T06:17:17;17.00;99.90
52187;DHT22;38161;53.020;6.598;2022-08-20T06:19:45;17.10;99.90
52187;DHT22;38161;53.020;6.598;2022-08-20T06:22:12;17.10;99.90
52187;DHT22;38161;53.020;6.598;2022-08-20T06:24:38;17.20;99.90
52187;DHT22;38161;53.020;6.598;2022-08-20T06:27:04;17.30;99.90
52187;DHT22;38161;53.020;6.598;2022-08-20T06:29:31;17.40;99.90
52187;DHT22;38161;53.020;6.598;2022-08-20T06:32:00;17.50;99.90
52187;DHT22;38161;53.020;6.598;2022-08-20T06:34:27;17.60;99.90
52187;DHT22;38161;53.020;6.598;2022-08-20T06:36:56;17.70;99.90
52187;DHT22;38161;53.020;6.598;2022-08-20T06:39:23;17.80;99.90
52187;DHT22;38161;53.020;6.598;2022-08-20T06:41:49;17.90;99.90
52187;DHT22;38161;53.020;6.598;2022-08-20T06:44:16;18.00;99.90
52187;DHT22;38161;53.020;6.598;2022-08-20T06:46:42;18.00;99.90
52187;DHT22;38161;53.020;6.598;2022-08-20T06:49:08;18.00;99.90
52187;DHT22;38161;53.020;6.598;2022-08-20T06:51:34;18.10;99.90
52187;DHT22;38161;53.020;6.598;2022-08-20T06:54:02;18.10;99.90
52187;DHT22;38161;53.020;6.598;2022-08-20T06:56:28;18.20;99.90
52187;DHT22;38161;53.020;6.598;2022-08-20T06:58:54;18.20;99.90
52187;DHT22;38161;53.020;6.598;2022-08-20T07:01:20;18.30;99.90
52187;DHT22;38161;53.020;6.598;2022-08-20T07:03:47;18.30;99.90
52187;DHT22;38161;53.020;6.598;2022-08-20T07:06:15;18.40;99.90
52187;DHT22;38161;53.020;6.598;2022-08-20T07:08:41;18.50;99.90
52187;DHT22;38161;53.020;6.598;2022-08-20T07:11:08;18.60;99.90
52187;DHT22;38161;53.020;6.598;2022-08-20T07:13:33;18.60;99.90
52187;DHT22;38161;53.020;6.598;2022-08-20T07:16:05;18.70;99.90
52187;DHT22;38161;53.020;6.598;2022-08-20T07:18:30;18.70;99.90
52187;DHT22;38161;53.020;6.598;2022-08-20T07:20:56;18.80;99.90
52187;DHT22;38161;53.020;6.598;2022-08-20T07:23:23;18.80;99.90
52187;DHT22;38161;53.020;6.598;2022-08-20T07:25:50;18.90;99.90
52187;DHT22;38161;53.020;6.598;2022-08-20T07:28:18;19.00;99.90
52187;DHT22;38161;53.020;6.598;2022-08-20T07:30:46;19.00;99.90
52187;DHT22;38161;53.020;6.598;2022-08-20T07:33:30;19.00;99.90
52187;DHT22;38161;53.020;6.598;2022-08-20T07:36:00;18.90;99.90
52187;DHT22;38161;53.020;6.598;2022-08-20T07:38:29;18.90;99.90
52187;DHT22;38161;53.020;6.598;2022-08-20T07:41:07;18.80;99.90
52187;DHT22;38161;53.020;6.598;2022-08-20T07:43:34;18.80;99.90
52187;DHT22;38161;53.020;6.598;2022-08-20T07:46:01;18.80;99.90
52187;DHT22;38161;53.020;6.598;2022-08-20T07:48:30;18.90;99.90
52187;DHT22;38161;53.020;6.598;2022-08-20T07:50:59;18.90;99.90
52187;DHT22;38161;53.020;6.598;2022-08-20T07:53:26;19.00;99.90
52187;DHT22;38161;53.020;6.598;2022-08-20T07:55:52;19.10;99.90
52187;DHT22;38161;53.020;6.598;2022-08-20T07:58:18;19.20;99.90
52187;DHT22;38161;53.020;6.598;2022-08-20T08:00:45;19.10;99.90
52187;DHT22;38161;53.020;6.598;2022-08-20T08:03:11;19.40;99.90
52187;DHT22;38161;53.020;6.598;2022-08-20T08:05:39;19.50;99.90
52187;DHT22;38161;53.020;6.598;2022-08-20T08:08:11;19.60;99.90
52187;DHT22;38161;53.020;6.598;2022-08-20T08:10:40;19.70;99.90
52187;DHT22;38161;53.020;6.598;2022-08-20T08:13:08;19.80;99.90
52187;DHT22;38161;53.020;6.598;2022-08-20T08:15:39;19.90;99.90
52187;DHT22;38161;53.020;6.598;2022-08-20T08:18:18;19.90;99.90
52187;DHT22;38161;53.020;6.598;2022-08-20T08:20:47;19.90;99.90
52187;DHT22;38161;53.020;6.598;2022-08-20T08:23:17;20.00;99.90
52187;DHT22;38161;53.020;6.598;2022-08-20T08:25:45;20.00;99.90
52187;DHT22;38161;53.020;6.598;2022-08-20T08:28:11;20.10;99.90
52187;DHT22;38161;53.020;6.598;2022-08-20T08:30:38;20.20;99.90
52187;DHT22;38161;53.020;6.598;2022-08-20T08:33:05;20.20;99.90
52187;DHT22;38161;53.020;6.598;2022-08-20T08:35:50;20.30;99.90
52187;DHT22;38161;53.020;6.598;2022-08-20T08:38:16;20.40;99.90
52187;DHT22;38161;53.020;6.598;2022-08-20T08:40:43;20.50;99.90
52187;DHT22;38161;53.020;6.598;2022-08-20T08:43:11;20.60;99.90
52187;DHT22;38161;53.020;6.598;2022-08-20T08:45:40;20.70;99.90
52187;DHT22;38161;53.020;6.598;2022-08-20T08:48:13;20.80;99.90
52187;DHT22;38161;53.020;6.598;2022-08-20T08:50:40;20.80;99.90
52187;DHT22;38161;53.020;6.598;2022-08-20T08:53:19;20.90;99.90
52187;DHT22;38161;53.020;6.598;2022-08-20T08:55:47;21.00;99.90
52187;DHT22;38161;53.020;6.598;2022-08-20T08:58:12;21.00;99.90
52187;DHT22;38161;53.020;6.598;2022-08-20T09:00:38;21.10;99.90
52187;DHT22;38161;53.020;6.598;2022-08-20T09:03:08;21.20;99.90
52187;DHT22;38161;53.020;6.598;2022-08-20T09:05:45;21.20;99.90
52187;DHT22;38161;53.020;6.598;2022-08-20T09:08:14;21.20;99.90
52187;DHT22;38161;53.020;6.598;2022-08-20T09:10:43;21.30;99.90
52187;DHT22;38161;53.020;6.598;2022-08-20T09:13:09;21.40;99.90
52187;DHT22;38161;53.020;6.598;2022-08-20T09:15:35;21.40;99.90
52187;DHT22;38161;53.020;6.598;2022-08-20T09:18:01;21.40;99.90
52187;DHT22;38161;53.020;6.598;2022-08-20T09:20:27;21.50;99.90
52187;DHT22;38161;53.020;6.598;2022-08-20T09:22:54;21.50;99.90
52187;DHT22;38161;53.020;6.598;2022-08-20T09:25:20;21.60;99.90
52187;DHT22;38161;53.020;6.598;2022-08-20T09:27:46;21.70;99.90
52187;DHT22;38161;53.020;6.598;2022-08-20T09:30:13;21.70;99.90
52187;DHT22;38161;53.020;6.598;2022-08-20T09:32:39;21.80;99.90
52187;DHT22;38161;53.020;6.598;2022-08-20T09:35:05;21.90;99.90
52187;DHT22;38161;53.020;6.598;2022-08-20T09:37:32;22.00;99.90
52187;DHT22;38161;53.020;6.598;2022-08-20T09:39:58;22.00;99.90
52187;DHT22;38161;53.020;6.598;2022-08-20T09:42:30;22.00;99.90
52187;DHT22;38161;53.020;6.598;2022-08-20T09:44:56;22.10;99.90
52187;DHT22;38161;53.020;6.598;2022-08-20T09:47:23;22.20;99.90
52187;DHT22;38161;53.020;6.598;2022-08-20T09:49:49;22.30;99.90
52187;DHT22;38161;53.020;6.598;2022-08-20T09:52:23;22.30;99.90
52187;DHT22;38161;53.020;6.598;2022-08-20T09:54:51;22.30;99.90
52187;DHT22;38161;53.020;6.598;2022-08-20T09:57:19;22.40;99.90
52187;DHT22;38161;53.020;6.598;2022-08-20T09:59:49;22.50;99.90
52187;DHT22;38161;53.020;6.598;2022-08-20T10:02:16;22.50;99.90
52187;DHT22;38161;53.020;6.598;2022-08-20T10:04:41;22.60;99.90
52187;DHT22;38161;53.020;6.598;2022-08-20T10:07:07;22.60;99.90
52187;DHT22;38161;53.020;6.598;2022-08-20T10:09:34;22.80;99.90
52187;DHT22;38161;53.020;6.598;2022-08-20T10:12:00;22.70;99.90
52187;DHT22;38161;53.020;6.598;2022-08-20T10:14:26;22.80;99.90
52187;DHT22;38161;53.020;6.598;2022-08-20T10:16:59;22.70;99.90
52187;DHT22;38161;53.020;6.598;2022-08-20T10:19:25;22.60;99.90
52187;DHT22;38161;53.020;6.598;2022-08-20T10:21:52;22.50;99.90
52187;DHT22;38161;53.020;6.598;2022-08-20T10:24:19;22.30;99.90
52187;DHT22;38161;53.020;6.598;2022-08-20T10:26:46;22.20;99.90
52187;DHT22;38161;53.020;6.598;2022-08-20T10:29:12;22.10;99.90
52187;DHT22;38161;53.020;6.598;2022-08-20T10:31:38;22.00;99.90
52187;DHT22;38161;53.020;6.598;2022-08-20T10:34:04;22.00;99.90
52187;DHT22;38161;53.020;6.598;2022-08-20T10:36:30;22.00;99.90
52187;DHT22;38161;53.020;6.598;2022-08-20T10:38:56;21.90;99.90
52187;DHT22;38161;53.020;6.598;2022-08-20T10:41:21;22.00;99.90
52187;DHT22;38161;53.020;6.598;2022-08-20T10:43:47;22.20;99.90
52187;DHT22;38161;53.020;6.598;2022-08-20T10:46:13;22.30;99.90
52187;DHT22;38161;53.020;6.598;2022-08-20T10:48:39;22.50;99.90
52187;DHT22;38161;53.020;6.598;2022-08-20T10:51:05;22.50;99.90
52187;DHT22;38161;53.020;6.598;2022-08-20T10:53:31;22.50;99.90
52187;DHT22;38161;53.020;6.598;2022-08-20T10:55:57;22.40;99.90
52187;DHT22;38161;53.020;6.598;2022-08-20T10:58:24;22.30;99.90
52187;DHT22;38161;53.020;6.598;2022-08-20T11:00:51;22.20;99.90
52187;DHT22;38161;53.020;6.598;2022-08-20T11:03:17;22.20;99.90
52187;DHT22;38161;53.020;6.598;2022-08-20T11:05:42;22.30;99.90
52187;DHT22;38161;53.020;6.598;2022-08-20T11:08:08;22.40;99.90
52187;DHT22;38161;53.020;6.598;2022-08-20T11:10:34;22.30;99.90
52187;DHT22;38161;53.020;6.598;2022-08-20T11:13:04;22.50;99.90
52187;DHT22;38161;53.020;6.598;2022-08-20T11:15:32;22.50;99.90
52187;DHT22;38161;53.020;6.598;2022-08-20T11:17:58;22.50;99.90
52187;DHT22;38161;53.020;6.598;2022-08-20T11:20:24;22.40;99.90
52187;DHT22;38161;53.020;6.598;2022-08-20T11:22:51;22.30;99.90
52187;DHT22;38161;53.020;6.598;2022-08-20T11:25:17;22.30;99.90
52187;DHT22;38161;53.020;6.598;2022-08-20T11:27:45;22.40;99.90
52187;DHT22;38161;53.020;6.598;2022-08-20T11:30:16;22.60;99.90
52187;DHT22;38161;53.020;6.598;2022-08-20T11:32:42;22.70;99.90
52187;DHT22;38161;53.020;6.598;2022-08-20T11:35:08;22.70;99.90
52187;DHT22;38161;53.020;6.598;2022-08-20T11:37:34;22.60;99.90
52187;DHT22;38161;53.020;6.598;2022-08-20T11:40:00;22.60;99.90
52187;DHT22;38161;53.020;6.598;2022-08-20T11:42:26;22.50;99.90
52187;DHT22;38161;53.020;6.598;2022-08-20T11:44:51;22.60;99.90
52187;DHT22;38161;53.020;6.598;2022-08-20T11:47:26;22.70;99.90
52187;DHT22;38161;53.020;6.598;2022-08-20T11:50:00;22.90;99.90
52187;DHT22;38161;53.020;6.598;2022-08-20T11:52:27;23.10;99.90
52187;DHT22;38161;53.020;6.598;2022-08-20T11:54:53;23.20;99.90
52187;DHT22;38161;53.020;6.598;2022-08-20T11:57:21;23.40;99.90
52187;DHT22;38161;53.020;6.598;2022-08-20T11:59:49;23.50;99.90
52187;DHT22;38161;53.020;6.598;2022-08-20T12:02:15;23.60;99.90
52187;DHT22;38161;53.020;6.598;2022-08-20T12:04:41;23.80;99.90
52187;DHT22;38161;53.020;6.598;2022-08-20T12:07:11;23.90;99.90
52187;DHT22;38161;53.020;6.598;2022-08-20T12:09:38;24.00;99.90
52187;DHT22;38161;53.020;6.598;2022-08-20T12:12:04;24.10;99.90
52187;DHT22;38161;53.020;6.598;2022-08-20T12:14:30;24.10;99.90
52187;DHT22;38161;53.020;6.598;2022-08-20T12:16:55;24.10;99.90
52187;DHT22;38161;53.020;6.598;2022-08-20T12:19:21;24.00;99.90
52187;DHT22;38161;53.020;6.598;2022-08-20T12:21:47;24.10;99.90
52187;DHT22;38161;53.020;6.598;2022-08-20T12:24:13;24.20;99.90
52187;DHT22;38161;53.020;6.598;2022-08-20T12:26:38;24.30;99.90
52187;DHT22;38161;53.020;6.598;2022-08-20T12:29:04;24.40;99.90
52187;DHT22;38161;53.020;6.598;2022-08-20T12:31:30;24.40;99.90
52187;DHT22;38161;53.020;6.598;2022-08-20T12:33:55;24.30;99.90
52187;DHT22;38161;53.020;6.598;2022-08-20T12:36:21;24.20;99.90
52187;DHT22;38161;53.020;6.598;2022-08-20T12:38:47;24.10;99.90
52187;DHT22;38161;53.020;6.598;2022-08-20T12:41:12;24.30;99.90
52187;DHT22;38161;53.020;6.598;2022-08-20T12:43:38;24.30;99.90
52187;DHT22;38161;53.020;6.598;2022-08-20T12:46:04;24.40;99.90
52187;DHT22;38161;53.020;6.598;2022-08-20T12:48:29;24.50;99.90
52187;DHT22;38161;53.020;6.598;2022-08-20T12:50:55;24.60;99.90
52187;DHT22;38161;53.020;6.598;2022-08-20T12:53:21;24.70;99.90
52187;DHT22;38161;53.020;6.598;2022-08-20T12:55:47;24.70;99.90
52187;DHT22;38161;53.020;6.598;2022-08-20T12:58:12;24.50;99.90
52187;DHT22;38161;53.020;6.598;2022-08-20T13:00:41;24.40;99.90
52187;DHT22;38161;53.020;6.598;2022-08-20T13:03:10;24.20;99.90
52187;DHT22;38161;53.020;6.598;2022-08-20T13:05:36;24.00;99.90
52187;DHT22;38161;53.020;6.598;2022-08-20T13:08:04;23.90;99.90
52187;DHT22;38161;53.020;6.598;2022-08-20T13:10:33;23.90;99.90
52187;DHT22;38161;53.020;6.598;2022-08-20T13:13:00;24.00;99.90
52187;DHT22;38161;53.020;6.598;2022-08-20T13:15:27;24.10;99.90
52187;DHT22;38161;53.020;6.598;2022-08-20T13:17:55;24.20;99.90
52187;DHT22;38161;53.020;6.598;2022-08-20T13:20:23;24.30;99.90
52187;DHT22;38161;53.020;6.598;2022-08-20T13:22:50;24.40;99.90
52187;DHT22;38161;53.020;6.598;2022-08-20T13:25:16;24.40;99.90
52187;DHT22;38161;53.020;6.598;2022-08-20T13:27:42;24.30;99.90
52187;DHT22;38161;53.020;6.598;2022-08-20T13:30:11;24.30;99.90
52187;DHT22;38161;53.020;6.598;2022-08-20T13:32:37;24.20;99.90
52187;DHT22;38161;53.020;6.598;2022-08-20T13:35:03;24.10;99.90
52187;DHT22;38161;53.020;6.598;2022-08-20T13:37:29;24.10;99.90
52187;DHT22;38161;53.020;6.598;2022-08-20T13:39:56;24.00;99.90
52187;DHT22;38161;53.020;6.598;2022-08-20T13:42:22;24.00;99.90
52187;DHT22;38161;53.020;6.598;2022-08-20T13:44:48;24.00;99.90
52187;DHT22;38161;53.020;6.598;2022-08-20T13:47:27;24.10;99.90
52187;DHT22;38161;53.020;6.598;2022-08-20T13:50:03;24.10;99.90
52187;DHT22;38161;53.020;6.598;2022-08-20T13:52:31;24.20;99.90
52187;DHT22;38161;53.020;6.598;2022-08-20T13:54:57;24.20;99.90
52187;DHT22;38161;53.020;6.598;2022-08-20T13:57:23;24.30;99.90
52187;DHT22;38161;53.020;6.598;2022-08-20T13:59:51;24.30;99.90
52187;DHT22;38161;53.020;6.598;2022-08-20T14:02:18;24.30;99.90
52187;DHT22;38161;53.020;6.598;2022-08-20T14:04:45;24.30;99.90
52187;DHT22;38161;53.020;6.598;2022-08-20T14:07:20;24.30;99.90
52187;DHT22;38161;53.020;6.598;2022-08-20T14:09:53;24.30;99.90
52187;DHT22;38161;53.020;6.598;2022-08-20T14:12:20;24.30;99.90
52187;DHT22;38161;53.020;6.598;2022-08-20T14:14:48;24.20;99.90
52187;DHT22;38161;53.020;6.598;2022-08-20T14:17:16;24.10;99.90
52187;DHT22;38161;53.020;6.598;2022-08-20T14:19:43;24.10;99.90
52187;DHT22;38161;53.020;6.598;2022-08-20T14:22:09;24.00;99.90
52187;DHT22;38161;53.020;6.598;2022-08-20T14:24:35;24.00;99.90
52187;DHT22;38161;53.020;6.598;2022-08-20T14:27:05;24.00;99.90
52187;DHT22;38161;53.020;6.598;2022-08-20T14:29:38;24.10;99.90
52187;DHT22;38161;53.020;6.598;2022-08-20T14:32:05;24.10;99.90
52187;DHT22;38161;53.020;6.598;2022-08-20T14:34:32;24.10;99.90
52187;DHT22;38161;53.020;6.598;2022-08-20T14:39:39;23.90;99.40
52187;DHT22;38161;53.020;6.598;2022-08-20T14:42:05;23.90;99.90
52187;DHT22;38161;53.020;6.598;2022-08-20T14:44:30;24.00;99.90
52187;DHT22;38161;53.020;6.598;2022-08-20T14:46:57;24.00;99.90
52187;DHT22;38161;53.020;6.598;2022-08-20T14:49:22;24.00;99.90
52187;DHT22;38161;53.020;6.598;2022-08-20T14:51:48;23.90;99.90
52187;DHT22;38161;53.020;6.598;2022-08-20T14:54:14;23.90;99.90
52187;DHT22;38161;53.020;6.598;2022-08-20T14:56:39;23.80;99.90
52187;DHT22;38161;53.020;6.598;2022-08-20T14:59:05;23.80;99.90
52187;DHT22;38161;53.020;6.598;2022-08-20T15:01:31;23.80;99.90
52187;DHT22;38161;53.020;6.598;2022-08-20T15:03:56;23.80;99.90
52187;DHT22;38161;53.020;6.598;2022-08-20T15:06:22;23.80;99.90
52187;DHT22;38161;53.020;6.598;2022-08-20T15:08:48;23.80;99.90
52187;DHT22;38161;53.020;6.598;2022-08-20T15:11:14;23.70;99.90
52187;DHT22;38161;53.020;6.598;2022-08-20T15:13:39;23.60;99.90
52187;DHT22;38161;53.020;6.598;2022-08-20T15:16:05;23.60;99.90
52187;DHT22;38161;53.020;6.598;2022-08-20T15:18:31;23.50;99.90
52187;DHT22;38161;53.020;6.598;2022-08-20T15:20:57;23.40;99.90
52187;DHT22;38161;53.020;6.598;2022-08-20T15:23:22;23.40;99.90
52187;DHT22;38161;53.020;6.598;2022-08-20T15:25:48;23.40;99.90
52187;DHT22;38161;53.020;6.598;2022-08-20T15:28:14;23.30;99.90
52187;DHT22;38161;53.020;6.598;2022-08-20T15:30:40;23.30;99.90
52187;DHT22;38161;53.020;6.598;2022-08-20T15:33:07;23.30;99.90
52187;DHT22;38161;53.020;6.598;2022-08-20T15:35:34;23.20;99.90
52187;DHT22;38161;53.020;6.598;2022-08-20T15:37:59;23.20;99.90
52187;DHT22;38161;53.020;6.598;2022-08-20T15:40:27;23.10;99.90
52187;DHT22;38161;53.020;6.598;2022-08-20T15:42:53;23.10;99.90